sensor_id;sensor_type;location;lat;lon;timestamp;P1;durP1;ratioP1;P2;durP2;ratioP2
78716;SDS011;68045;50.042;14.432;2023-04-25T00:03:25;5.38;;;2.78;;
78716;SDS011;68045;50.042;14.432;2023-04-25T00:07:26;4.57;;;2.38;;
78716;SDS011;68045;50.042;14.432;2023-04-25T00:11:27;5.85;;;2.60;;
78716;SDS011;68045;50.042;14.432;2023-04-25T00:15:28;7.97;;;2.97;;
78716;SDS011;68045;50.042;14.432;2023-04-25T00:19:31;4.80;;;2.45;;
78716;SDS011;68045;50.042;14.432;2023-04-25T00:23:33;5.93;;;2.45;;
78716;SDS011;68045;50.042;14.432;2023-04-25T00:27:36;5.45;;;2.60;;
78716;SDS011;68045;50.042;14.432;2023-04-25T00:31:37;4.70;;;2.60;;
78716;SDS011;68045;50.042;14.432;2023-04-25T00:35:38;6.90;;;2.70;;
78716;SDS011;68045;50.042;14.432;2023-04-25T00:39:39;4.97;;;2.90;;
78716;SDS011;68045;50.042;14.432;2023-04-25T00:43:40;5.55;;;2.75;;
78716;SDS011;68045;50.042;14.432;2023-04-25T00:47:41;3.88;;;2.42;;
78716;SDS011;68045;50.042;14.432;2023-04-25T00:51:43;6.07;;;3.30;;
78716;SDS011;68045;50.042;14.432;2023-04-25T00:55:47;6.07;;;2.85;;
78716;SDS011;68045;50.042;14.432;2023-04-25T00:59:51;5.63;;;2.63;;
78716;SDS011;68045;50.042;14.432;2023-04-25T01:03:53;5.88;;;3.03;;
78716;SDS011;68045;50.042;14.432;2023-04-25T01:07:55;6.07;;;2.85;;
78716;SDS011;68045;50.042;14.432;2023-04-25T01:11:56;5.38;;;3.05;;
78716;SDS011;68045;50.042;14.432;2023-04-25T01:15:58;4.80;;;3.03;;
78716;SDS011;68045;50.042;14.432;2023-04-25T01:20:03;5.10;;;3.17;;
78716;SDS011;68045;50.042;14.432;2023-04-25T01:24:07;6.10;;;3.08;;
78716;SDS011;68045;50.042;14.432;2023-04-25T01:28:09;8.90;;;3.40;;
78716;SDS011;68045;50.042;14.432;2023-04-25T01:32:10;7.45;;;3.03;;
78716;SDS011;68045;50.042;14.432;2023-04-25T01:36:11;6.85;;;3.75;;
78716;SDS011;68045;50.042;14.432;2023-04-25T01:40:13;5.50;;;3.30;;
78716;SDS011;68045;50.042;14.432;2023-04-25T01:44:15;6.43;;;3.60;;
78716;SDS011;68045;50.042;14.432;2023-04-25T01:48:16;5.88;;;3.10;;
78716;SDS011;68045;50.042;14.432;2023-04-25T01:52:18;5.85;;;3.47;;
78716;SDS011;68045;50.042;14.432;2023-04-25T01:56:19;7.78;;;4.30;;
78716;SDS011;68045;50.042;14.432;2023-04-25T02:00:20;7.60;;;3.70;;
78716;SDS011;68045;50.042;14.432;2023-04-25T02:04:22;10.90;;;4.00;;
78716;SDS011;68045;50.042;14.432;2023-04-25T02:08:23;8.52;;;4.70;;
78716;SDS011;68045;50.042;14.432;2023-04-25T02:12:28;7.57;;;3.88;;
78716;SDS011;68045;50.042;14.432;2023-04-25T02:16:40;6.10;;;3.75;;
78716;SDS011;68045;50.042;14.432;2023-04-25T02:20:42;7.70;;;4.38;;
78716;SDS011;68045;50.042;14.432;2023-04-25T02:24:43;6.88;;;3.42;;
78716;SDS011;68045;50.042;14.432;2023-04-25T02:28:44;7.70;;;4.00;;
78716;SDS011;68045;50.042;14.432;2023-04-25T02:32:45;10.30;;;4.68;;
78716;SDS011;68045;50.042;14.432;2023-04-25T02:36:48;8.95;;;4.20;;
78716;SDS011;68045;50.042;14.432;2023-04-25T02:40:52;7.22;;;4.63;;
78716;SDS011;68045;50.042;14.432;2023-04-25T02:44:52;7.78;;;4.57;;
78716;SDS011;68045;50.042;14.432;2023-04-25T02:48:54;9.10;;;4.22;;
78716;SDS011;68045;50.042;14.432;2023-04-25T02:52:55;10.55;;;5.20;;
78716;SDS011;68045;50.042;14.432;2023-04-25T02:57:01;10.02;;;4.93;;
78716;SDS011;68045;50.042;14.432;2023-04-25T03:01:08;7.32;;;4.70;;
78716;SDS011;68045;50.042;14.432;2023-04-25T03:05:09;8.00;;;4.22;;
78716;SDS011;68045;50.042;14.432;2023-04-25T03:09:10;8.65;;;4.47;;
78716;SDS011;68045;50.042;14.432;2023-04-25T03:13:11;7.18;;;4.43;;
78716;SDS011;68045;50.042;14.432;2023-04-25T03:17:13;9.90;;;4.50;;
78716;SDS011;68045;50.042;14.432;2023-04-25T03:21:13;10.80;;;4.38;;
78716;SDS011;68045;50.042;14.432;2023-04-25T03:25:14;7.30;;;4.40;;
78716;SDS011;68045;50.042;14.432;2023-04-25T03:29:15;8.10;;;4.47;;
78716;SDS011;68045;50.042;14.432;2023-04-25T03:33:17;8.82;;;4.03;;
78716;SDS011;68045;50.042;14.432;2023-04-25T03:37:18;6.43;;;3.88;;
78716;SDS011;68045;50.042;14.432;2023-04-25T03:41:20;10.73;;;4.55;;
78716;SDS011;68045;50.042;14.432;2023-04-25T03:45:26;9.18;;;4.63;;
78716;SDS011;68045;50.042;14.432;2023-04-25T03:49:27;9.02;;;4.50;;
78716;SDS011;68045;50.042;14.432;2023-04-25T03:53:38;7.25;;;4.70;;
78716;SDS011;68045;50.042;14.432;2023-04-25T03:57:54;9.85;;;4.45;;
78716;SDS011;68045;50.042;14.432;2023-04-25T04:01:55;12.13;;;5.15;;
78716;SDS011;68045;50.042;14.432;2023-04-25T04:05:56;11.15;;;4.88;;
78716;SDS011;68045;50.042;14.432;2023-04-25T04:09:57;11.27;;;5.80;;
78716;SDS011;68045;50.042;14.432;2023-04-25T04:14:07;8.48;;;5.22;;
78716;SDS011;68045;50.042;14.432;2023-04-25T04:18:09;11.25;;;5.72;;
78716;SDS011;68045;50.042;14.432;2023-04-25T04:22:11;9.77;;;4.85;;
78716;SDS011;68045;50.042;14.432;2023-04-25T04:26:13;8.65;;;5.03;;
78716;SDS011;68045;50.042;14.432;2023-04-25T04:30:40;13.13;;;5.35;;
78716;SDS011;68045;50.042;14.432;2023-04-25T04:34:43;11.13;;;5.35;;
78716;SDS011;68045;50.042;14.432;2023-04-25T04:38:46;8.07;;;5.00;;
78716;SDS011;68045;50.042;14.432;2023-04-25T04:42:55;8.95;;;5.25;;
78716;SDS011;68045;50.042;14.432;2023-04-25T04:47:11;11.07;;;5.20;;
78716;SDS011;68045;50.042;14.432;2023-04-25T04:51:37;8.30;;;4.70;;
78716;SDS011;68045;50.042;14.432;2023-04-25T04:56:04;8.13;;;4.95;;
78716;SDS011;68045;50.042;14.432;2023-04-25T05:00:31;8.60;;;4.90;;
78716;SDS011;68045;50.042;14.432;2023-04-25T05:04:51;11.02;;;6.13;;
78716;SDS011;68045;50.042;14.432;2023-04-25T05:09:11;9.50;;;5.13;;
78716;SDS011;68045;50.042;14.432;2023-04-25T05:13:30;11.35;;;5.30;;
78716;SDS011;68045;50.042;14.432;2023-04-25T05:17:43;9.18;;;5.50;;
78716;SDS011;68045;50.042;14.432;2023-04-25T05:21:59;9.23;;;5.45;;
78716;SDS011;68045;50.042;14.432;2023-04-25T05:26:18;11.13;;;5.88;;
78716;SDS011;68045;50.042;14.432;2023-04-25T05:30:41;8.43;;;5.25;;
78716;SDS011;68045;50.042;14.432;2023-04-25T05:34:50;15.43;;;6.22;;
78716;SDS011;68045;50.042;14.432;2023-04-25T05:39:06;12.20;;;6.20;;
78716;SDS011;68045;50.042;14.432;2023-04-25T05:43:26;9.10;;;5.30;;
78716;SDS011;68045;50.042;14.432;2023-04-25T05:47:44;10.45;;;5.57;;
78716;SDS011;68045;50.042;14.432;2023-04-25T05:51:52;13.60;;;5.55;;
78716;SDS011;68045;50.042;14.432;2023-04-25T05:56:12;10.70;;;5.53;;
78716;SDS011;68045;50.042;14.432;2023-04-25T06:00:14;13.45;;;6.28;;
78716;SDS011;68045;50.042;14.432;2023-04-25T06:04:18;11.57;;;5.10;;
78716;SDS011;68045;50.042;14.432;2023-04-25T06:08:18;10.27;;;5.53;;
78716;SDS011;68045;50.042;14.432;2023-04-25T06:12:19;12.18;;;5.65;;
78716;SDS011;68045;50.042;14.432;2023-04-25T06:16:21;9.30;;;5.43;;
78716;SDS011;68045;50.042;14.432;2023-04-25T06:20:22;12.85;;;6.00;;
78716;SDS011;68045;50.042;14.432;2023-04-25T06:24:25;8.82;;;5.28;;
78716;SDS011;68045;50.042;14.432;2023-04-25T06:28:26;8.57;;;5.35;;
78716;SDS011;68045;50.042;14.432;2023-04-25T06:32:27;8.82;;;5.50;;
78716;SDS011;68045;50.042;14.432;2023-04-25T06:36:32;9.95;;;5.72;;
78716;SDS011;68045;50.042;14.432;2023-04-25T06:40:39;9.00;;;5.25;;
78716;SDS011;68045;50.042;14.432;2023-04-25T06:44:42;7.95;;;5.05;;
78716;SDS011;68045;50.042;14.432;2023-04-25T06:48:46;10.02;;;5.18;;
78716;SDS011;68045;50.042;14.432;2023-04-25T06:52:47;8.45;;;5.40;;
78716;SDS011;68045;50.042;14.432;2023-04-25T06:56:48;9.55;;;5.20;;
78716;SDS011;68045;50.042;14.432;2023-04-25T07:00:49;10.63;;;5.47;;
78716;SDS011;68045;50.042;14.432;2023-04-25T07:04:52;11.75;;;5.47;;
78716;SDS011;68045;50.042;14.432;2023-04-25T07:08:53;10.32;;;5.60;;
78716;SDS011;68045;50.042;14.432;2023-04-25T07:12:54;7.47;;;5.10;;
78716;SDS011;68045;50.042;14.432;2023-04-25T07:16:55;12.75;;;5.68;;
78716;SDS011;68045;50.042;14.432;2023-04-25T07:20:59;9.88;;;5.57;;
78716;SDS011;68045;50.042;14.432;2023-04-25T07:25:01;9.60;;;5.50;;
78716;SDS011;68045;50.042;14.432;2023-04-25T07:29:04;9.45;;;5.55;;
78716;SDS011;68045;50.042;14.432;2023-04-25T07:33:04;9.63;;;5.70;;
78716;SDS011;68045;50.042;14.432;2023-04-25T07:37:06;10.23;;;5.20;;
78716;SDS011;68045;50.042;14.432;2023-04-25T07:41:15;8.98;;;5.05;;
78716;SDS011;68045;50.042;14.432;2023-04-25T07:45:16;8.48;;;5.18;;
78716;SDS011;68045;50.042;14.432;2023-04-25T07:49:18;9.02;;;5.03;;
78716;SDS011;68045;50.042;14.432;2023-04-25T07:53:19;8.13;;;5.07;;
78716;SDS011;68045;50.042;14.432;2023-04-25T07:57:28;8.32;;;4.65;;
78716;SDS011;68045;50.042;14.432;2023-04-25T08:01:31;8.80;;;4.38;;
78716;SDS011;68045;50.042;14.432;2023-04-25T08:05:35;8.57;;;4.18;;
78716;SDS011;68045;50.042;14.432;2023-04-25T08:09:39;7.60;;;4.47;;
78716;SDS011;68045;50.042;14.432;2023-04-25T08:13:45;7.95;;;5.20;;
78716;SDS011;68045;50.042;14.432;2023-04-25T08:17:47;6.63;;;4.60;;
78716;SDS011;68045;50.042;14.432;2023-04-25T08:21:48;7.25;;;4.93;;
78716;SDS011;68045;50.042;14.432;2023-04-25T08:25:55;8.40;;;4.53;;
78716;SDS011;68045;50.042;14.432;2023-04-25T08:30:01;6.75;;;4.40;;
78716;SDS011;68045;50.042;14.432;2023-04-25T08:34:05;7.07;;;3.97;;
78716;SDS011;68045;50.042;14.432;2023-04-25T08:38:22;5.93;;;3.90;;
78716;SDS011;68045;50.042;14.432;2023-04-25T08:42:23;6.25;;;3.75;;
78716;SDS011;68045;50.042;14.432;2023-04-25T08:46:25;5.25;;;3.60;;
78716;SDS011;68045;50.042;14.432;2023-04-25T08:54:52;5.68;;;3.78;;
78716;SDS011;68045;50.042;14.432;2023-04-25T08:58:55;6.63;;;4.18;;
78716;SDS011;68045;50.042;14.432;2023-04-25T09:02:57;6.55;;;3.65;;
78716;SDS011;68045;50.042;14.432;2023-04-25T09:07:03;6.72;;;3.92;;
78716;SDS011;68045;50.042;14.432;2023-04-25T09:11:06;6.35;;;3.67;;
78716;SDS011;68045;50.042;14.432;2023-04-25T09:15:11;7.85;;;3.85;;
78716;SDS011;68045;50.042;14.432;2023-04-25T09:19:32;7.13;;;3.95;;
78716;SDS011;68045;50.042;14.432;2023-04-25T09:23:54;5.53;;;3.50;;
78716;SDS011;68045;50.042;14.432;2023-04-25T09:27:55;7.63;;;4.10;;
78716;SDS011;68045;50.042;14.432;2023-04-25T09:32:35;6.90;;;5.00;;
78716;SDS011;68045;50.042;14.432;2023-04-25T09:36:31;5.53;;;3.70;;
78716;SDS011;68045;50.042;14.432;2023-04-25T09:40:52;7.07;;;4.30;;
78716;SDS011;68045;50.042;14.432;2023-04-25T09:45:02;6.63;;;3.45;;
78716;SDS011;68045;50.042;14.432;2023-04-25T09:49:08;4.97;;;3.30;;
78716;SDS011;68045;50.042;14.432;2023-04-25T09:53:30;5.20;;;3.50;;
78716;SDS011;68045;50.042;14.432;2023-04-25T09:58:04;9.95;;;5.35;;
78716;SDS011;68045;50.042;14.432;2023-04-25T10:02:07;6.25;;;4.30;;
78716;SDS011;68045;50.042;14.432;2023-04-25T10:06:14;7.57;;;4.28;;
78716;SDS011;68045;50.042;14.432;2023-04-25T10:10:24;7.90;;;4.90;;
78716;SDS011;68045;50.042;14.432;2023-04-25T10:14:27;7.30;;;4.88;;
78716;SDS011;68045;50.042;14.432;2023-04-25T10:18:31;6.35;;;5.03;;
78716;SDS011;68045;50.042;14.432;2023-04-25T10:22:34;6.80;;;4.05;;
78716;SDS011;68045;50.042;14.432;2023-04-25T10:26:38;7.05;;;4.28;;
78716;SDS011;68045;50.042;14.432;2023-04-25T10:30:56;5.78;;;3.70;;
78716;SDS011;68045;50.042;14.432;2023-04-25T10:35:13;5.95;;;4.25;;
78716;SDS011;68045;50.042;14.432;2023-04-25T10:39:41;6.43;;;3.88;;
78716;SDS011;68045;50.042;14.432;2023-04-25T10:43:43;5.45;;;3.38;;
78716;SDS011;68045;50.042;14.432;2023-04-25T10:47:45;4.07;;;2.53;;
78716;SDS011;68045;50.042;14.432;2023-04-25T10:51:46;4.13;;;2.70;;
78716;SDS011;68045;50.042;14.432;2023-04-25T10:55:49;4.80;;;3.05;;
78716;SDS011;68045;50.042;14.432;2023-04-25T10:59:51;4.78;;;3.05;;
78716;SDS011;68045;50.042;14.432;2023-04-25T11:03:57;6.05;;;3.67;;
78716;SDS011;68045;50.042;14.432;2023-04-25T11:07:58;4.68;;;3.42;;
78716;SDS011;68045;50.042;14.432;2023-04-25T11:12:00;8.15;;;4.10;;
78716;SDS011;68045;50.042;14.432;2023-04-25T11:16:01;6.78;;;4.53;;
78716;SDS011;68045;50.042;14.432;2023-04-25T11:20:02;11.68;;;4.95;;
78716;SDS011;68045;50.042;14.432;2023-04-25T11:24:07;9.48;;;5.25;;
78716;SDS011;68045;50.042;14.432;2023-04-25T11:28:08;12.10;;;5.25;;
78716;SDS011;68045;50.042;14.432;2023-04-25T11:32:09;7.22;;;4.45;;
78716;SDS011;68045;50.042;14.432;2023-04-25T11:36:10;11.68;;;5.07;;
78716;SDS011;68045;50.042;14.432;2023-04-25T11:40:12;5.72;;;4.20;;
78716;SDS011;68045;50.042;14.432;2023-04-25T11:44:15;6.90;;;3.72;;
78716;SDS011;68045;50.042;14.432;2023-04-25T11:48:18;4.53;;;2.97;;
78716;SDS011;68045;50.042;14.432;2023-04-25T11:52:19;5.80;;;3.00;;
78716;SDS011;68045;50.042;14.432;2023-04-25T11:56:20;5.45;;;2.70;;
78716;SDS011;68045;50.042;14.432;2023-04-25T12:00:21;3.70;;;2.30;;
78716;SDS011;68045;50.042;14.432;2023-04-25T12:04:24;3.42;;;2.20;;
78716;SDS011;68045;50.042;14.432;2023-04-25T12:08:25;3.78;;;2.30;;
78716;SDS011;68045;50.042;14.432;2023-04-25T12:12:32;5.03;;;2.85;;
78716;SDS011;68045;50.042;14.432;2023-04-25T12:16:43;5.68;;;2.70;;
78716;SDS011;68045;50.042;14.432;2023-04-25T12:20:46;5.85;;;2.70;;
78716;SDS011;68045;50.042;14.432;2023-04-25T12:24:48;3.83;;;2.60;;
78716;SDS011;68045;50.042;14.432;2023-04-25T12:28:48;4.88;;;3.00;;
78716;SDS011;68045;50.042;14.432;2023-04-25T12:32:49;5.10;;;2.60;;
78716;SDS011;68045;50.042;14.432;2023-04-25T12:36:50;4.95;;;2.50;;
78716;SDS011;68045;50.042;14.432;2023-04-25T12:40:53;5.75;;;2.33;;
78716;SDS011;68045;50.042;14.432;2023-04-25T12:44:54;5.72;;;2.25;;
78716;SDS011;68045;50.042;14.432;2023-04-25T12:48:55;5.35;;;2.40;;
78716;SDS011;68045;50.042;14.432;2023-04-25T12:52:57;4.63;;;3.22;;
78716;SDS011;68045;50.042;14.432;2023-04-25T12:56:58;6.50;;;3.15;;
78716;SDS011;68045;50.042;14.432;2023-04-25T13:00:59;3.85;;;2.60;;
78716;SDS011;68045;50.042;14.432;2023-04-25T13:05:00;5.97;;;3.22;;
78716;SDS011;68045;50.042;14.432;2023-04-25T13:09:01;4.85;;;3.50;;
78716;SDS011;68045;50.042;14.432;2023-04-25T13:13:02;6.90;;;3.08;;
78716;SDS011;68045;50.042;14.432;2023-04-25T13:17:03;5.88;;;3.05;;
78716;SDS011;68045;50.042;14.432;2023-04-25T13:21:04;5.75;;;3.05;;
78716;SDS011;68045;50.042;14.432;2023-04-25T13:25:06;7.93;;;3.40;;
78716;SDS011;68045;50.042;14.432;2023-04-25T13:29:08;7.95;;;3.55;;
78716;SDS011;68045;50.042;14.432;2023-04-25T13:33:09;4.60;;;3.13;;
78716;SDS011;68045;50.042;14.432;2023-04-25T13:37:10;6.55;;;3.13;;
78716;SDS011;68045;50.042;14.432;2023-04-25T13:41:11;10.43;;;3.25;;
78716;SDS011;68045;50.042;14.432;2023-04-25T13:45:18;6.15;;;3.10;;
78716;SDS011;68045;50.042;14.432;2023-04-25T13:49:19;7.53;;;2.97;;
78716;SDS011;68045;50.042;14.432;2023-04-25T13:53:20;4.97;;;3.15;;
78716;SDS011;68045;50.042;14.432;2023-04-25T13:57:21;4.63;;;2.97;;
78716;SDS011;68045;50.042;14.432;2023-04-25T14:01:22;6.28;;;2.67;;
78716;SDS011;68045;50.042;14.432;2023-04-25T14:05:23;5.28;;;2.58;;
78716;SDS011;68045;50.042;14.432;2023-04-25T14:09:24;4.28;;;2.70;;
78716;SDS011;68045;50.042;14.432;2023-04-25T14:13:26;5.35;;;2.83;;
78716;SDS011;68045;50.042;14.432;2023-04-25T14:17:27;7.00;;;3.28;;
78716;SDS011;68045;50.042;14.432;2023-04-25T14:21:28;5.72;;;3.03;;
78716;SDS011;68045;50.042;14.432;2023-04-25T14:25:32;5.30;;;3.15;;
78716;SDS011;68045;50.042;14.432;2023-04-25T14:29:33;6.80;;;2.88;;
78716;SDS011;68045;50.042;14.432;2023-04-25T14:33:34;4.72;;;2.60;;
78716;SDS011;68045;50.042;14.432;2023-04-25T14:37:35;5.10;;;3.05;;
78716;SDS011;68045;50.042;14.432;2023-04-25T14:41:36;4.68;;;2.72;;
78716;SDS011;68045;50.042;14.432;2023-04-25T14:45:37;5.72;;;2.83;;
78716;SDS011;68045;50.042;14.432;2023-04-25T14:49:38;6.15;;;2.42;;
78716;SDS011;68045;50.042;14.432;2023-04-25T14:53:39;4.68;;;2.70;;
78716;SDS011;68045;50.042;14.432;2023-04-25T14:57:41;4.63;;;2.80;;
78716;SDS011;68045;50.042;14.432;2023-04-25T15:01:42;4.47;;;2.40;;
78716;SDS011;68045;50.042;14.432;2023-04-25T15:05:43;5.10;;;2.80;;
78716;SDS011;68045;50.042;14.432;2023-04-25T15:09:44;4.78;;;3.00;;
78716;SDS011;68045;50.042;14.432;2023-04-25T15:13:45;6.05;;;3.22;;
78716;SDS011;68045;50.042;14.432;2023-04-25T15:17:46;4.22;;;3.03;;
78716;SDS011;68045;50.042;14.432;2023-04-25T15:21:47;4.78;;;3.40;;
78716;SDS011;68045;50.042;14.432;2023-04-25T15:25:49;4.28;;;2.88;;
78716;SDS011;68045;50.042;14.432;2023-04-25T15:29:51;5.18;;;3.67;;
78716;SDS011;68045;50.042;14.432;2023-04-25T15:33:53;5.65;;;3.60;;
78716;SDS011;68045;50.042;14.432;2023-04-25T15:37:54;6.18;;;3.50;;
78716;SDS011;68045;50.042;14.432;2023-04-25T15:41:55;5.45;;;3.55;;
78716;SDS011;68045;50.042;14.432;2023-04-25T15:49:58;5.15;;;3.97;;
78716;SDS011;68045;50.042;14.432;2023-04-25T15:53:59;7.82;;;4.20;;
78716;SDS011;68045;50.042;14.432;2023-04-25T15:58:02;7.55;;;4.55;;
78716;SDS011;68045;50.042;14.432;2023-04-25T16:02:03;8.68;;;4.78;;
78716;SDS011;68045;50.042;14.432;2023-04-25T16:06:04;8.82;;;4.93;;
78716;SDS011;68045;50.042;14.432;2023-04-25T16:10:05;7.65;;;5.28;;
78716;SDS011;68045;50.042;14.432;2023-04-25T16:14:06;9.00;;;6.28;;
78716;SDS011;68045;50.042;14.432;2023-04-25T16:18:08;11.07;;;6.43;;
78716;SDS011;68045;50.042;14.432;2023-04-25T16:22:09;11.05;;;6.68;;
78716;SDS011;68045;50.042;14.432;2023-04-25T16:26:12;8.93;;;4.97;;
78716;SDS011;68045;50.042;14.432;2023-04-25T16:30:13;7.45;;;4.53;;
78716;SDS011;68045;50.042;14.432;2023-04-25T16:34:14;7.45;;;4.68;;
78716;SDS011;68045;50.042;14.432;2023-04-25T16:38:15;7.25;;;4.53;;
78716;SDS011;68045;50.042;14.432;2023-04-25T16:42:16;7.20;;;4.38;;
78716;SDS011;68045;50.042;14.432;2023-04-25T16:46:17;9.15;;;4.38;;
78716;SDS011;68045;50.042;14.432;2023-04-25T16:50:19;7.63;;;4.55;;
78716;SDS011;68045;50.042;14.432;2023-04-25T16:54:20;7.68;;;3.97;;
78716;SDS011;68045;50.042;14.432;2023-04-25T16:58:21;9.43;;;4.45;;
78716;SDS011;68045;50.042;14.432;2023-04-25T17:02:22;8.60;;;4.53;;
78716;SDS011;68045;50.042;14.432;2023-04-25T17:06:23;7.10;;;3.90;;
78716;SDS011;68045;50.042;14.432;2023-04-25T17:10:24;8.35;;;3.60;;
78716;SDS011;68045;50.042;14.432;2023-04-25T17:14:25;6.75;;;3.50;;
78716;SDS011;68045;50.042;14.432;2023-04-25T17:18:26;8.48;;;3.75;;
78716;SDS011;68045;50.042;14.432;2023-04-25T17:22:27;5.85;;;3.40;;
78716;SDS011;68045;50.042;14.432;2023-04-25T17:26:30;5.93;;;3.42;;
78716;SDS011;68045;50.042;14.432;2023-04-25T17:30:31;6.00;;;3.20;;
78716;SDS011;68045;50.042;14.432;2023-04-25T17:34:32;6.82;;;3.13;;
78716;SDS011;68045;50.042;14.432;2023-04-25T17:38:33;6.82;;;3.40;;
78716;SDS011;68045;50.042;14.432;2023-04-25T17:42:36;5.97;;;3.45;;
78716;SDS011;68045;50.042;14.432;2023-04-25T17:46:41;5.30;;;3.30;;
78716;SDS011;68045;50.042;14.432;2023-04-25T17:50:41;6.32;;;3.90;;
78716;SDS011;68045;50.042;14.432;2023-04-25T17:54:42;5.82;;;3.97;;
78716;SDS011;68045;50.042;14.432;2023-04-25T17:58:43;6.80;;;3.53;;
78716;SDS011;68045;50.042;14.432;2023-04-25T18:02:44;8.32;;;3.83;;
78716;SDS011;68045;50.042;14.432;2023-04-25T18:06:47;10.93;;;4.40;;
78716;SDS011;68045;50.042;14.432;2023-04-25T18:10:47;9.35;;;4.30;;
78716;SDS011;68045;50.042;14.432;2023-04-25T18:14:48;6.72;;;4.03;;
78716;SDS011;68045;50.042;14.432;2023-04-25T18:18:50;9.18;;;3.90;;
78716;SDS011;68045;50.042;14.432;2023-04-25T18:22:52;6.15;;;3.97;;
78716;SDS011;68045;50.042;14.432;2023-04-25T18:26:53;9.15;;;4.63;;
78716;SDS011;68045;50.042;14.432;2023-04-25T18:30:55;8.00;;;4.55;;
78716;SDS011;68045;50.042;14.432;2023-04-25T18:34:56;10.10;;;4.68;;
78716;SDS011;68045;50.042;14.432;2023-04-25T18:38:57;10.57;;;5.00;;
78716;SDS011;68045;50.042;14.432;2023-04-25T18:42:59;11.43;;;5.20;;
78716;SDS011;68045;50.042;14.432;2023-04-25T18:47:00;13.00;;;4.78;;
78716;SDS011;68045;50.042;14.432;2023-04-25T18:51:01;10.32;;;4.95;;
78716;SDS011;68045;50.042;14.432;2023-04-25T18:55:02;10.52;;;4.68;;
78716;SDS011;68045;50.042;14.432;2023-04-25T18:59:04;10.32;;;4.55;;
78716;SDS011;68045;50.042;14.432;2023-04-25T19:03:05;8.68;;;4.20;;
78716;SDS011;68045;50.042;14.432;2023-04-25T19:07:05;9.07;;;4.18;;
78716;SDS011;68045;50.042;14.432;2023-04-25T19:11:06;6.85;;;3.90;;
78716;SDS011;68045;50.042;14.432;2023-04-25T19:15:08;13.57;;;3.78;;
78716;SDS011;68045;50.042;14.432;2023-04-25T19:19:10;14.35;;;4.18;;
78716;SDS011;68045;50.042;14.432;2023-04-25T19:23:11;9.88;;;4.10;;
78716;SDS011;68045;50.042;14.432;2023-04-25T19:27:12;12.27;;;4.22;;
78716;SDS011;68045;50.042;14.432;2023-04-25T19:31:13;10.68;;;3.92;;
78716;SDS011;68045;50.042;14.432;2023-04-25T19:35:14;9.75;;;3.58;;
78716;SDS011;68045;50.042;14.432;2023-04-25T19:39:15;7.45;;;3.60;;
78716;SDS011;68045;50.042;14.432;2023-04-25T19:43:16;8.10;;;3.63;;
78716;SDS011;68045;50.042;14.432;2023-04-25T19:47:17;7.75;;;3.33;;
78716;SDS011;68045;50.042;14.432;2023-04-25T19:51:18;11.48;;;4.05;;
78716;SDS011;68045;50.042;14.432;2023-04-25T19:55:19;8.82;;;3.67;;
78716;SDS011;68045;50.042;14.432;2023-04-25T19:59:20;9.63;;;3.85;;
78716;SDS011;68045;50.042;14.432;2023-04-25T20:03:21;6.15;;;3.60;;
78716;SDS011;68045;50.042;14.432;2023-04-25T20:07:22;8.20;;;3.50;;
78716;SDS011;68045;50.042;14.432;2023-04-25T20:11:23;8.68;;;3.70;;
78716;SDS011;68045;50.042;14.432;2023-04-25T20:15:28;8.50;;;3.58;;
78716;SDS011;68045;50.042;14.432;2023-04-25T20:19:28;8.55;;;3.50;;
78716;SDS011;68045;50.042;14.432;2023-04-25T20:23:30;6.80;;;3.38;;
78716;SDS011;68045;50.042;14.432;2023-04-25T20:27:33;12.95;;;4.25;;
78716;SDS011;68045;50.042;14.432;2023-04-25T20:31:37;9.75;;;3.78;;
78716;SDS011;68045;50.042;14.432;2023-04-25T20:35:38;10.10;;;2.92;;
78716;SDS011;68045;50.042;14.432;2023-04-25T20:39:39;10.65;;;3.17;;
78716;SDS011;68045;50.042;14.432;2023-04-25T20:43:39;6.30;;;3.47;;
78716;SDS011;68045;50.042;14.432;2023-04-25T20:47:41;8.80;;;3.58;;
78716;SDS011;68045;50.042;14.432;2023-04-25T20:51:43;7.22;;;3.22;;
78716;SDS011;68045;50.042;14.432;2023-04-25T20:55:44;10.60;;;3.78;;
78716;SDS011;68045;50.042;14.432;2023-04-25T20:59:45;8.63;;;3.45;;
78716;SDS011;68045;50.042;14.432;2023-04-25T21:03:46;7.43;;;3.63;;
78716;SDS011;68045;50.042;14.432;2023-04-25T21:07:48;8.52;;;3.67;;
78716;SDS011;68045;50.042;14.432;2023-04-25T21:11:49;8.73;;;3.90;;
78716;SDS011;68045;50.042;14.432;2023-04-25T21:15:51;14.70;;;7.57;;
78716;SDS011;68045;50.042;14.432;2023-04-25T21:19:52;11.65;;;4.75;;
78716;SDS011;68045;50.042;14.432;2023-04-25T21:23:53;9.38;;;4.05;;
78716;SDS011;68045;50.042;14.432;2023-04-25T21:27:54;11.75;;;4.20;;
78716;SDS011;68045;50.042;14.432;2023-04-25T21:31:56;12.18;;;5.22;;
78716;SDS011;68045;50.042;14.432;2023-04-25T21:35:57;37.70;;;15.18;;
78716;SDS011;68045;50.042;14.432;2023-04-25T21:39:58;13.05;;;4.70;;
78716;SDS011;68045;50.042;14.432;2023-04-25T21:43:59;9.05;;;3.83;;
78716;SDS011;68045;50.042;14.432;2023-04-25T21:48:00;12.90;;;4.28;;
78716;SDS011;68045;50.042;14.432;2023-04-25T21:52:01;12.80;;;4.22;;
78716;SDS011;68045;50.042;14.432;2023-04-25T21:56:02;12.82;;;4.63;;
78716;SDS011;68045;50.042;14.432;2023-04-25T22:00:04;10.90;;;4.82;;
78716;SDS011;68045;50.042;14.432;2023-04-25T22:04:19;11.80;;;4.53;;
78716;SDS011;68045;50.042;14.432;2023-04-25T22:08:20;10.45;;;4.55;;
78716;SDS011;68045;50.042;14.432;2023-04-25T22:12:21;10.10;;;4.30;;
78716;SDS011;68045;50.042;14.432;2023-04-25T22:16:22;12.13;;;4.40;;
78716;SDS011;68045;50.042;14.432;2023-04-25T22:20:23;9.07;;;4.65;;
78716;SDS011;68045;50.042;14.432;2023-04-25T22:24:27;8.60;;;3.47;;
78716;SDS011;68045;50.042;14.432;2023-04-25T22:28:29;6.22;;;3.90;;
78716;SDS011;68045;50.042;14.432;2023-04-25T22:32:30;11.02;;;5.20;;
78716;SDS011;68045;50.042;14.432;2023-04-25T22:36:31;8.85;;;4.40;;
78716;SDS011;68045;50.042;14.432;2023-04-25T22:40:33;11.82;;;4.20;;
78716;SDS011;68045;50.042;14.432;2023-04-25T22:44:34;6.25;;;3.17;;
78716;SDS011;68045;50.042;14.432;2023-04-25T22:48:34;6.65;;;3.38;;
78716;SDS011;68045;50.042;14.432;2023-04-25T22:52:36;7.57;;;3.45;;
78716;SDS011;68045;50.042;14.432;2023-04-25T22:56:36;5.57;;;3.13;;
78716;SDS011;68045;50.042;14.432;2023-04-25T23:00:37;10.63;;;3.65;;
78716;SDS011;68045;50.042;14.432;2023-04-25T23:04:38;11.40;;;4.05;;
78716;SDS011;68045;50.042;14.432;2023-04-25T23:08:39;10.75;;;3.42;;
78716;SDS011;68045;50.042;14.432;2023-04-25T23:12:41;9.40;;;3.70;;
78716;SDS011;68045;50.042;14.432;2023-04-25T23:16:42;11.52;;;3.95;;
78716;SDS011;68045;50.042;14.432;2023-04-25T23:20:43;6.78;;;3.13;;
78716;SDS011;68045;50.042;14.432;2023-04-25T23:24:45;6.25;;;3.50;;
78716;SDS011;68045;50.042;14.432;2023-04-25T23:28:46;6.45;;;3.28;;
78716;SDS011;68045;50.042;14.432;2023-04-25T23:32:47;9.35;;;3.47;;
78716;SDS011;68045;50.042;14.432;2023-04-25T23:36:48;7.38;;;2.95;;
78716;SDS011;68045;50.042;14.432;2023-04-25T23:40:49;8.75;;;2.78;;
78716;SDS011;68045;50.042;14.432;2023-04-25T23:44:50;6.28;;;2.88;;
78716;SDS011;68045;50.042;14.432;2023-04-25T23:48:51;7.55;;;3.10;;
78716;SDS011;68045;50.042;14.432;2023-04-25T23:52:52;7.70;;;3.05;;
78716;SDS011;68045;50.042;14.432;2023-04-25T23:56:53;5.43;;;3.03;;
